createdAt,value
2018-01-17T00:00:38.346Z,92.70
2018-01-17T00:03:07.244Z,92.60
2018-01-17T00:05:39.519Z,92.50
2018-01-17T00:08:08.446Z,92.50
2018-01-17T00:10:37.460Z,92.60
2018-01-17T00:13:06.399Z,92.60
2018-01-17T00:15:35.297Z,92.60
2018-01-17T00:18:04.100Z,92.60
2018-01-17T00:20:32.868Z,93.00
2018-01-17T00:23:01.769Z,93.00
2018-01-17T00:25:34.061Z,92.90
2018-01-17T00:28:02.930Z,92.90
2018-01-17T00:30:31.813Z,93.00
2018-01-17T00:33:00.621Z,92.80
2018-01-17T00:35:29.461Z,91.70
2018-01-17T00:37:58.210Z,91.40
2018-01-17T00:40:26.701Z,91.00
2018-01-17T00:42:55.579Z,91.00
2018-01-17T00:45:26.119Z,90.90
2018-01-17T00:47:55.766Z,90.80
2018-01-17T00:50:24.570Z,90.80
2018-01-17T00:52:53.373Z,90.60
2018-01-17T00:55:22.167Z,90.50
2018-01-17T00:57:51.050Z,90.10
2018-01-17T01:00:19.773Z,89.70
2018-01-17T01:02:48.528Z,89.50
2018-01-17T01:05:18.088Z,89.80
2018-01-17T01:07:46.848Z,89.70
2018-01-17T01:10:15.617Z,89.60
2018-01-17T01:12:44.428Z,89.20
2018-01-17T01:15:13.196Z,90.10
2018-01-17T01:17:42.614Z,89.30
2018-01-17T01:20:11.393Z,89.20
2018-01-17T01:22:40.190Z,89.10
2018-01-17T01:25:08.961Z,88.60
2018-01-17T01:27:39.342Z,88.70
2018-01-17T01:30:08.186Z,88.70
2018-01-17T01:32:36.990Z,89.50
2018-01-17T01:35:05.728Z,88.40
2018-01-17T01:37:35.257Z,88.80
2018-01-17T01:40:05.061Z,88.40
2018-01-17T01:42:33.781Z,88.30
2018-01-17T01:45:02.558Z,87.70
2018-01-17T01:47:32.169Z,87.20
2018-01-17T01:50:01.824Z,87.00
2018-01-17T01:52:30.316Z,87.00
2018-01-17T01:54:59.101Z,87.50
2018-01-17T01:57:27.878Z,88.90
2018-01-17T01:59:57.054Z,89.00
2018-01-17T02:02:25.842Z,89.30
2018-01-17T02:04:54.634Z,89.50
2018-01-17T02:07:23.499Z,90.20
2018-01-17T02:09:52.310Z,90.30
2018-01-17T02:12:21.175Z,90.20
2018-01-17T02:14:50.821Z,89.90
2018-01-17T02:17:19.565Z,89.90
2018-01-17T02:19:48.381Z,89.80
2018-01-17T02:22:17.221Z,89.70
2018-01-17T02:24:46.199Z,89.90
2018-01-17T02:27:15.970Z,89.40
2018-01-17T02:29:45.599Z,90.10
2018-01-17T02:32:14.390Z,90.10
2018-01-17T02:34:43.268Z,88.70
2018-01-17T02:37:12.087Z,88.30
2018-01-17T02:39:52.025Z,88.70
2018-01-17T02:42:20.885Z,87.50
2018-01-17T02:44:49.679Z,87.90
2018-01-17T02:47:19.263Z,88.40
2018-01-17T02:49:51.856Z,88.70
2018-01-17T02:52:20.661Z,88.70
2018-01-17T02:54:49.450Z,89.00
2018-01-17T02:57:18.568Z,89.40
2018-01-17T02:59:47.325Z,90.00
2018-01-17T03:02:16.668Z,90.10
2018-01-17T03:04:45.495Z,91.10
2018-01-17T03:07:14.255Z,91.00
2018-01-17T03:09:43.026Z,91.40
2018-01-17T03:12:12.327Z,91.50
2018-01-17T03:14:41.219Z,91.60
2018-01-17T03:17:10.093Z,91.70
2018-01-17T03:19:38.931Z,91.80
2018-01-17T03:22:07.837Z,91.70
2018-01-17T03:24:36.725Z,91.90
2018-01-17T03:27:06.647Z,91.90
2018-01-17T03:29:36.277Z,92.10
2018-01-17T03:32:05.174Z,92.10
2018-01-17T03:34:34.455Z,92.10
2018-01-17T03:37:03.305Z,92.10
2018-01-17T03:39:33.259Z,92.10
2018-01-17T03:42:02.213Z,92.20
2018-01-17T03:44:31.288Z,92.10
2018-01-17T03:47:01.636Z,92.10
2018-01-17T03:49:31.664Z,92.10
2018-01-17T03:52:01.151Z,92.10
2018-01-17T03:54:31.992Z,92.20
2018-01-17T03:57:00.963Z,92.30
2018-01-17T03:59:30.208Z,92.10
2018-01-17T04:02:01.391Z,92.10
2018-01-17T04:04:32.367Z,92.00
2018-01-17T04:07:02.281Z,92.10
2018-01-17T04:09:32.069Z,92.30
2018-01-17T04:12:01.009Z,92.30
2018-01-17T04:14:31.921Z,92.20
2018-01-17T04:17:01.771Z,92.30
2018-01-17T04:19:31.944Z,92.40
2018-01-17T04:22:00.839Z,92.40
2018-01-17T04:24:31.038Z,92.40
2018-01-17T04:27:00.478Z,92.40
2018-01-17T04:29:30.122Z,92.40
2018-01-17T04:31:59.749Z,92.40
2018-01-17T04:34:31.702Z,92.30
2018-01-17T04:37:01.133Z,92.60
2018-01-17T04:39:34.209Z,92.90
2018-01-17T04:42:05.020Z,92.80
2018-01-17T04:44:34.858Z,92.60
2018-01-17T04:47:06.327Z,92.60
2018-01-17T04:49:38.862Z,92.70
2018-01-17T04:55:38.230Z,92.60
2018-01-17T04:58:10.997Z,92.50
2018-01-17T05:00:59.036Z,92.50
2018-01-17T05:07:00.592Z,92.50
2018-01-17T05:09:48.981Z,92.60
2018-01-17T05:12:20.554Z,92.70
2018-01-17T06:08:50.136Z,92.80
2018-01-17T06:11:18.969Z,92.90
2018-01-17T06:13:48.470Z,92.90
2018-01-17T06:16:17.282Z,92.80
2018-01-17T06:18:46.389Z,92.80
2018-01-17T06:27:14.357Z,92.90
2018-01-17T06:29:43.460Z,93.00
2018-01-17T06:32:11.801Z,93.00
2018-01-17T06:34:40.732Z,93.00
2018-01-17T06:37:12.553Z,92.90
2018-01-17T06:39:46.109Z,92.90
2018-01-17T06:42:14.940Z,93.10
2018-01-17T06:44:44.449Z,93.10
2018-01-17T06:47:13.911Z,93.20
2018-01-17T06:49:42.694Z,93.20
2018-01-17T06:52:11.507Z,92.90
2018-01-17T06:54:41.054Z,92.80
2018-01-17T06:57:09.885Z,92.80
2018-01-17T06:59:38.652Z,92.90
2018-01-17T07:02:07.433Z,93.00
2018-01-17T07:04:36.428Z,93.00
2018-01-17T07:07:05.205Z,93.00
2018-01-17T07:09:34.042Z,93.00
2018-01-17T07:12:02.816Z,93.00
2018-01-17T07:14:31.690Z,93.00
2018-01-17T07:17:01.083Z,93.10
2018-01-17T07:19:29.846Z,93.10
2018-01-17T07:21:59.467Z,93.20
2018-01-17T07:24:28.273Z,93.10
2018-01-17T07:26:57.073Z,93.30
2018-01-17T07:29:25.894Z,93.30
2018-01-17T07:31:54.632Z,93.20
2018-01-17T07:34:23.408Z,93.10
2018-01-17T07:36:52.965Z,92.90
2018-01-17T07:39:21.795Z,92.90
2018-01-17T07:41:50.629Z,92.70
2018-01-17T07:44:19.501Z,92.70
2018-01-17T07:46:48.273Z,92.80
2018-01-17T07:49:17.080Z,92.80
2018-01-17T07:51:45.881Z,92.80
2018-01-17T07:54:14.579Z,92.80
2018-01-17T07:56:43.450Z,92.90
2018-01-17T07:59:12.281Z,92.70
2018-01-17T08:01:41.040Z,92.80
2018-01-17T08:04:09.895Z,92.80
2018-01-17T08:06:38.711Z,92.50
2018-01-17T08:09:07.472Z,92.20
2018-01-17T08:11:36.285Z,91.60
2018-01-17T08:14:05.120Z,91.40
2018-01-17T08:16:33.602Z,91.30
2018-01-17T08:19:02.457Z,91.50
2018-01-17T08:21:35.278Z,90.70
2018-01-17T08:24:05.391Z,91.00
2018-01-17T08:26:35.486Z,90.90
2018-01-17T08:29:37.390Z,90.90
2018-01-17T08:32:06.485Z,91.00
2018-01-17T09:55:28.974Z,36.80
2018-01-17T09:58:00.118Z,36.60
2018-01-17T10:00:30.030Z,39.20
2018-01-17T10:02:58.619Z,41.40
2018-01-17T10:05:28.281Z,37.90
2018-01-17T10:07:56.882Z,37.90
2018-01-17T10:10:25.741Z,37.70
2018-01-17T10:12:54.311Z,38.30
2018-01-17T10:15:22.876Z,38.30
2018-01-17T10:17:51.350Z,36.90
2018-01-17T10:20:19.908Z,35.10
2018-01-17T10:22:48.506Z,35.50
2018-01-17T10:25:16.996Z,36.80
2018-01-17T10:27:45.493Z,39.00
2018-01-17T10:30:14.763Z,36.50
2018-01-17T10:32:43.298Z,36.50
2018-01-17T10:35:12.614Z,43.50
2018-01-17T10:37:41.249Z,43.50
2018-01-17T10:40:09.719Z,48.10
2018-01-17T10:42:38.403Z,51.30
2018-01-17T10:45:06.896Z,47.10
2018-01-17T10:47:37.949Z,47.20
2018-01-17T10:50:06.540Z,48.00
2018-01-17T10:52:35.097Z,47.60
2018-01-17T10:55:03.568Z,47.90
2018-01-17T10:57:32.099Z,43.90
2018-01-17T11:00:00.636Z,43.80
2018-01-17T11:02:29.131Z,42.00
2018-01-17T11:04:57.665Z,40.80
2018-01-17T11:07:26.189Z,42.60
2018-01-17T11:09:54.700Z,46.00
2018-01-17T11:12:23.230Z,51.60
2018-01-17T11:14:51.724Z,57.20
2018-01-17T11:17:20.207Z,48.60
2018-01-17T11:19:48.684Z,58.20
2018-01-17T11:22:17.152Z,53.80
2018-01-17T11:24:45.674Z,49.90
2018-01-17T11:27:14.426Z,47.20
2018-01-17T11:29:43.226Z,48.50
2018-01-17T11:32:12.680Z,52.00
2018-01-17T11:34:41.622Z,52.00
2018-01-17T11:37:10.355Z,55.40
2018-01-17T11:39:39.128Z,55.40
2018-01-17T11:42:07.852Z,57.50
2018-01-17T11:44:36.631Z,58.80
2018-01-17T11:47:05.421Z,60.40
2018-01-17T11:49:34.137Z,59.30
2018-01-17T11:52:02.877Z,56.60
2018-01-17T11:54:31.594Z,54.20
2018-01-17T11:57:00.323Z,55.20
2018-01-17T11:59:29.056Z,53.80
2018-01-17T12:01:57.798Z,54.00
2018-01-17T12:04:26.509Z,52.60
2018-01-17T12:06:55.282Z,51.80
2018-01-17T12:09:24.007Z,50.50
2018-01-17T12:11:52.809Z,50.90
2018-01-17T12:14:21.630Z,48.10
2018-01-17T12:16:50.367Z,46.30
2018-01-17T12:19:19.126Z,46.10
2018-01-17T12:21:48.673Z,42.20
2018-01-17T12:24:18.202Z,40.20
2018-01-17T12:26:46.957Z,40.20
2018-01-17T12:29:15.750Z,41.70
2018-01-17T12:31:44.512Z,41.50
2018-01-17T12:34:13.309Z,39.70
2018-01-17T12:36:42.089Z,39.00
2018-01-17T12:39:11.027Z,38.30
2018-01-17T12:41:39.788Z,36.60
2018-01-17T12:44:09.370Z,36.80
2018-01-17T12:46:39.107Z,36.20
2018-01-17T12:49:07.976Z,36.20
2018-01-17T12:51:37.766Z,36.00
2018-01-17T12:54:07.398Z,37.50
2018-01-17T12:56:36.624Z,37.40
2018-01-17T12:59:05.493Z,36.70
2018-01-17T13:01:35.133Z,37.10
2018-01-17T13:04:07.399Z,36.20
2018-01-17T13:06:37.257Z,38.50
2018-01-17T13:09:08.649Z,36.00
2018-01-17T13:11:37.466Z,36.00
2018-01-17T13:14:07.137Z,35.50
2018-01-17T13:16:36.713Z,35.50
2018-01-17T13:19:05.837Z,36.20
2018-01-17T13:21:35.665Z,35.70
2018-01-17T13:24:04.422Z,35.70
2018-01-17T13:26:33.213Z,35.40
2018-01-17T13:29:02.036Z,35.20
2018-01-17T13:31:32.384Z,32.90
2018-01-17T13:37:23.388Z,32.60
2018-01-17T13:39:58.037Z,32.10
2018-01-17T13:42:28.840Z,31.00
2018-01-17T13:45:16.168Z,29.60
2018-01-17T13:51:10.523Z,29.80
2018-01-17T13:53:54.614Z,30.00
2018-01-17T14:02:47.517Z,30.60
2018-01-17T14:05:55.029Z,31.50
2018-01-17T16:22:19.165Z,36.90
2018-01-17T16:24:54.651Z,36.60
2018-01-17T16:27:25.637Z,36.60
2018-01-17T16:33:09.680Z,37.40
2018-01-17T16:44:25.650Z,39.00
2018-01-17T16:54:27.693Z,39.80
2018-01-17T16:56:57.533Z,38.50
2018-01-17T16:59:27.045Z,38.40
2018-01-17T17:02:21.599Z,39.10
2018-01-17T17:04:54.812Z,38.60
2018-01-17T17:45:14.984Z,52.80
2018-01-17T17:47:43.775Z,55.60
2018-01-17T17:50:13.837Z,56.20
2018-01-17T17:52:42.890Z,57.10
